createdAt,value
2022-10-28T00:03:06.199Z,36.90
2022-10-28T00:08:10.232Z,31.50
2022-10-28T00:13:13.824Z,40.50
2022-10-28T00:18:17.521Z,34.80
2022-10-28T00:23:20.865Z,51.10
2022-10-28T00:28:24.842Z,30.70
2022-10-28T00:33:28.941Z,30.20
2022-10-28T00:38:33.775Z,31.30
2022-10-28T00:43:50.194Z,33.60
2022-10-28T00:49:06.608Z,24.50
2022-10-28T00:54:11.751Z,32.10
2022-10-28T00:59:26.416Z,27.40
2022-10-28T01:04:30.557Z,33.10
2022-10-28T01:09:35.204Z,27.70
2022-10-28T01:15:11.667Z,34.10
2022-10-28T01:20:25.871Z,28.00
2022-10-28T01:26:07.764Z,30.60
2022-10-28T01:31:35.302Z,27.90
2022-10-28T01:36:55.756Z,33.70
2022-10-28T01:42:25.257Z,30.50
2022-10-28T01:47:38.229Z,28.50
2022-10-28T01:52:44.979Z,29.50
2022-10-28T01:57:53.282Z,31.90
2022-10-28T02:02:57.531Z,30.80
2022-10-28T02:08:25.016Z,24.90
2022-10-28T02:13:46.984Z,28.00
2022-10-28T02:19:07.267Z,27.10
2022-10-28T02:24:40.409Z,23.30
2022-10-28T02:30:02.083Z,17.60
2022-10-28T02:35:15.529Z,16.80
2022-10-28T02:40:25.918Z,20.70
2022-10-28T02:45:40.390Z,20.00
2022-10-28T02:50:51.497Z,22.20
2022-10-28T02:56:01.644Z,25.60
2022-10-28T03:01:06.406Z,18.60
2022-10-28T03:06:11.305Z,16.90
2022-10-28T03:11:16.245Z,18.70
2022-10-28T03:16:20.021Z,28.50
2022-10-28T03:21:23.564Z,26.90
2022-10-28T03:26:26.910Z,28.40
2022-10-28T03:31:31.007Z,32.00
2022-10-28T03:36:35.534Z,34.70
2022-10-28T03:41:40.212Z,31.50
2022-10-28T03:46:44.606Z,28.60
2022-10-28T03:51:49.293Z,31.80
2022-10-28T03:56:53.874Z,29.90
2022-10-28T04:01:59.421Z,39.30
2022-10-28T04:07:05.047Z,30.70
2022-10-28T04:12:12.110Z,36.40
2022-10-28T04:17:16.014Z,32.00
2022-10-28T04:22:19.702Z,30.10
2022-10-28T04:27:23.864Z,29.40
2022-10-28T04:32:27.531Z,35.50
2022-10-28T04:37:31.063Z,31.50
2022-10-28T04:42:35.022Z,33.50
2022-10-28T04:47:38.509Z,37.60
2022-10-28T04:52:41.787Z,38.10
2022-10-28T04:57:45.813Z,33.80
2022-10-28T05:02:49.306Z,33.70
2022-10-28T05:07:52.834Z,32.70
2022-10-28T05:12:56.583Z,39.20
2022-10-28T05:18:01.003Z,35.90
2022-10-28T05:23:04.660Z,34.20
2022-10-28T05:29:16.942Z,34.20
2022-10-28T05:34:27.683Z,41.20
2022-10-28T05:39:30.817Z,38.60
2022-10-28T05:44:34.007Z,35.30
2022-10-28T05:49:46.812Z,40.80
2022-10-28T05:54:57.770Z,39.50
2022-10-28T06:00:01.305Z,38.30
2022-10-28T06:05:05.848Z,31.40
2022-10-28T06:10:11.500Z,37.40
2022-10-28T06:15:15.936Z,38.30
2022-10-28T06:20:20.472Z,28.10
2022-10-28T06:25:26.206Z,40.60
2022-10-28T06:30:29.640Z,36.30
2022-10-28T06:35:33.113Z,38.50
2022-10-28T06:40:37.637Z,30.20
2022-10-28T06:45:41.183Z,36.30
2022-10-28T06:50:46.367Z,36.90
2022-10-28T06:55:57.581Z,41.70
2022-10-28T07:01:06.054Z,36.00
2022-10-28T07:06:20.267Z,30.00
2022-10-28T07:11:24.573Z,41.20
2022-10-28T07:16:28.552Z,33.20
2022-10-28T07:21:33.007Z,42.40
2022-10-28T07:27:33.650Z,34.10
2022-10-28T07:32:55.174Z,28.80
2022-10-28T07:37:59.244Z,38.10
2022-10-28T07:43:02.844Z,37.80
2022-10-28T07:48:07.569Z,29.60
2022-10-28T07:53:11.033Z,35.20
2022-10-28T07:58:14.544Z,33.00
2022-10-28T08:03:18.166Z,32.50
2022-10-28T08:08:21.434Z,27.90
2022-10-28T08:13:25.595Z,34.70
2022-10-28T08:18:28.841Z,29.10
2022-10-28T08:23:32.244Z,35.30
2022-10-28T08:28:35.656Z,37.90
2022-10-28T08:33:42.559Z,39.40
2022-10-28T08:38:47.343Z,29.50
2022-10-28T08:44:06.646Z,26.40
2022-10-28T08:49:14.944Z,32.10
2022-10-28T08:54:26.127Z,24.80
2022-10-28T08:59:42.891Z,25.40
2022-10-28T09:04:48.386Z,27.80
2022-10-28T09:09:56.901Z,20.30
2022-10-28T09:15:27.809Z,25.40
2022-10-28T09:20:44.774Z,24.60
2022-10-28T09:26:07.488Z,27.40
2022-10-28T09:31:21.686Z,28.00
2022-10-28T09:36:37.736Z,24.50
2022-10-28T09:41:45.370Z,22.20
2022-10-28T09:47:00.420Z,23.40
2022-10-28T09:52:15.263Z,21.20
2022-10-28T09:57:21.496Z,17.90
2022-10-28T10:02:28.365Z,16.60
2022-10-28T10:07:38.954Z,17.10
2022-10-28T10:12:45.534Z,22.30
2022-10-28T10:17:53.674Z,20.60
2022-10-28T10:22:58.067Z,13.70
2022-10-28T10:28:05.057Z,15.50
2022-10-28T10:33:23.771Z,21.20
2022-10-28T10:38:30.655Z,15.70
2022-10-28T10:43:38.415Z,17.60
2022-10-28T10:48:45.197Z,13.60
2022-10-28T10:53:51.599Z,10.90
2022-10-28T10:58:59.281Z,14.60
2022-10-28T11:04:07.954Z,14.30
2022-10-28T11:09:19.969Z,12.00
2022-10-28T11:14:25.445Z,12.70
2022-10-28T11:19:37.040Z,16.50
2022-10-28T11:24:47.775Z,13.60
2022-10-28T11:29:51.354Z,10.70
2022-10-28T11:35:37.289Z,14.10
2022-10-28T11:41:11.191Z,10.30
2022-10-28T11:46:40.391Z,11.60
2022-10-28T11:52:02.563Z,7.90
2022-10-28T11:57:17.931Z,10.30
2022-10-28T12:02:52.412Z,16.10
2022-10-28T12:08:18.986Z,8.80
2022-10-28T12:13:41.807Z,9.00
2022-10-28T12:18:55.152Z,10.00
2022-10-28T12:23:59.753Z,8.20
2022-10-28T12:29:09.871Z,7.00
2022-10-28T12:34:21.379Z,7.40
2022-10-28T12:39:26.164Z,7.00
2022-10-28T12:44:34.140Z,7.70
2022-10-28T12:49:46.464Z,6.10
2022-10-28T12:54:59.715Z,10.20
2022-10-28T13:00:25.202Z,10.40
2022-10-28T13:05:42.636Z,6.20
2022-10-28T13:10:57.519Z,5.30
2022-10-28T13:16:24.215Z,6.80
2022-10-28T13:21:49.329Z,7.60
2022-10-28T13:26:55.634Z,10.10
2022-10-28T13:32:01.101Z,9.40
2022-10-28T13:37:16.572Z,10.00
2022-10-28T13:42:23.941Z,6.30
2022-10-28T13:47:36.529Z,5.60
2022-10-28T13:52:42.633Z,4.90
2022-10-28T13:57:49.137Z,5.90
2022-10-28T14:02:56.085Z,6.60
2022-10-28T14:08:07.471Z,10.40
2022-10-28T14:13:21.980Z,6.40
2022-10-28T14:18:44.153Z,5.50
2022-10-28T14:24:09.637Z,6.30
2022-10-28T14:29:33.297Z,4.60
2022-10-28T14:34:43.887Z,4.20
2022-10-28T14:40:09.340Z,4.60
2022-10-28T14:45:13.553Z,6.60
2022-10-28T14:50:22.671Z,5.90
2022-10-28T14:55:33.968Z,5.10
2022-10-28T15:00:46.786Z,5.20
2022-10-28T15:05:51.986Z,13.40
2022-10-28T15:10:56.840Z,8.60
2022-10-28T15:16:04.618Z,10.20
2022-10-28T15:21:11.135Z,8.90
2022-10-28T15:26:16.855Z,10.10
2022-10-28T15:31:21.004Z,7.50
2022-10-28T15:36:27.969Z,8.20
2022-10-28T15:41:45.941Z,8.10
2022-10-28T15:46:51.501Z,10.00
2022-10-28T15:52:17.373Z,12.90
2022-10-28T15:57:27.629Z,12.10
2022-10-28T16:02:42.839Z,10.40
2022-10-28T16:07:47.350Z,9.40
2022-10-28T16:12:51.761Z,7.70
2022-10-28T16:17:56.470Z,10.80
2022-10-28T16:23:02.919Z,12.60
2022-10-28T16:28:26.140Z,8.80
2022-10-28T16:33:34.443Z,10.30
2022-10-28T16:38:39.596Z,7.70
2022-10-28T16:43:44.345Z,10.80
2022-10-28T16:48:50.230Z,11.10
2022-10-28T16:53:54.345Z,13.60
2022-10-28T16:58:58.129Z,15.10
2022-10-28T17:04:01.984Z,15.00
2022-10-28T17:09:05.669Z,12.90
2022-10-28T17:14:10.194Z,12.40
2022-10-28T17:19:13.628Z,12.20
2022-10-28T17:24:17.137Z,13.00
2022-10-28T17:29:20.494Z,9.90
2022-10-28T17:34:24.050Z,16.80
2022-10-28T17:39:27.545Z,13.80
2022-10-28T17:44:31.144Z,9.00
2022-10-28T17:49:37.487Z,8.60
2022-10-28T17:54:40.806Z,11.10
2022-10-28T17:59:44.799Z,10.00
2022-10-28T18:04:49.725Z,12.20
2022-10-28T18:09:55.149Z,10.50
2022-10-28T18:14:58.950Z,9.10
2022-10-28T18:20:03.323Z,11.70
2022-10-28T18:25:09.059Z,10.50
2022-10-28T18:30:13.989Z,9.80
2022-10-28T18:35:18.712Z,11.00
2022-10-28T18:40:30.021Z,11.30
2022-10-28T18:45:36.160Z,13.10
2022-10-28T18:50:46.969Z,12.20
2022-10-28T18:55:54.821Z,8.90
2022-10-28T19:01:06.243Z,7.20
2022-10-28T19:06:18.416Z,7.30
2022-10-28T19:11:26.237Z,13.20
2022-10-28T19:16:44.502Z,13.90
2022-10-28T19:21:51.530Z,12.90
2022-10-28T19:26:56.395Z,14.40
2022-10-28T19:32:00.705Z,10.90
2022-10-28T19:37:05.246Z,8.20
2022-10-28T19:42:09.362Z,10.60
2022-10-28T19:47:16.704Z,14.30
2022-10-28T19:52:20.682Z,8.10
2022-10-28T19:57:25.563Z,11.20
2022-10-28T20:02:30.586Z,15.80
2022-10-28T20:07:34.892Z,10.00
2022-10-28T20:12:38.715Z,10.40
2022-10-28T20:17:46.935Z,9.10
2022-10-28T20:22:51.655Z,11.40
2022-10-28T20:27:55.651Z,9.30
2022-10-28T20:33:00.338Z,13.80
2022-10-28T20:38:04.422Z,13.70
2022-10-28T20:43:07.959Z,10.60
2022-10-28T20:48:12.607Z,9.50
2022-10-28T20:53:16.903Z,13.60
2022-10-28T20:58:22.987Z,11.40
2022-10-28T21:03:27.312Z,13.50
2022-10-28T21:08:31.377Z,9.30
2022-10-28T21:13:35.827Z,12.10
2022-10-28T21:18:41.041Z,11.00
2022-10-28T21:23:46.857Z,24.30
2022-10-28T21:34:01.838Z,12.50
2022-10-28T21:39:10.567Z,9.20
2022-10-28T21:44:14.580Z,8.50
2022-10-28T21:49:18.705Z,9.30
2022-10-28T21:54:24.923Z,10.10
2022-10-28T21:59:32.867Z,12.20
2022-10-28T22:04:40.690Z,10.90
2022-10-28T22:09:49.834Z,16.00
2022-10-28T22:14:56.738Z,11.00
2022-10-28T22:20:02.497Z,8.50
2022-10-28T22:25:09.488Z,9.90
2022-10-28T22:30:16.509Z,8.90
2022-10-28T22:35:21.850Z,13.00
2022-10-28T22:40:26.924Z,9.70
2022-10-28T22:45:32.237Z,9.40
2022-10-28T22:50:36.693Z,8.10
2022-10-28T22:55:41.617Z,10.90
2022-10-28T23:00:47.394Z,9.70
2022-10-28T23:05:52.500Z,11.30
2022-10-28T23:10:58.619Z,11.80
2022-10-28T23:16:11.698Z,13.30
2022-10-28T23:21:23.125Z,7.80
2022-10-28T23:26:29.436Z,7.60
2022-10-28T23:36:43.092Z,11.00
2022-10-28T23:41:49.136Z,10.60
2022-10-28T23:46:56.047Z,13.70
2022-10-28T23:52:01.208Z,9.90
2022-10-28T23:57:06.379Z,10.50
